首页
METAR-TAF:

METAR-TAF

机场 :

合肥新桥国际机场

合肥, 中华人民共和国

纬度: 31-52N, 经度: 117-14E, 海拔: 36米

当前天气观测

该预报发布于35分钟前的05:00 UTC
风速6节,风向东南,在之间变化
温度 16°C
湿度 59%
气压 1019 hPa
能见度10公里或以上
1500米以下无云,无积雨云

METAR: ZSOF 140500Z 13003MPS 080V180 CAVOK 16/08 Q1019 NOSIG

时间: 13:35 (05:35 UTC)

预报

该预报发布于2小时和33分钟前的03:02 UTC
预报有效从14日的 06点(UTC)到 15日的 06点(UTC)
风速6节,风向东转东南
能見度: 5000
轻雾

TAF: ZSOF 140302Z 1406/1506 12003MPS 5000 BR NSC TX17/1406Z TN11/1421Z

超过4000个机场的气象观测和天气预报(METAR&TAF报告)。

可查询的气象台以黄色和红色小点在地图上表示。

将鼠标移到小点上方,可查看气象台名称。

然后点击查看天气观测和预报。

如需切换地图:点击带黑十字的绿色按钮放大地图;点击带横线的绿色按钮缩小地图;或者点击绿色箭头查看邻近地区的地图。


METAR-TAF: